createdAt,value
2024-02-14T00:01:11.723Z,0.50
2024-02-14T00:03:39.733Z,0.50
2024-02-14T00:06:07.469Z,0.70
2024-02-14T00:08:34.857Z,0.50
2024-02-14T00:11:02.357Z,0.60
2024-02-14T00:13:29.640Z,0.60
2024-02-14T00:15:57.941Z,0.50
2024-02-14T00:18:25.449Z,0.70
2024-02-14T00:20:52.499Z,1.00
2024-02-14T00:23:20.167Z,1.20
2024-02-14T00:25:46.962Z,1.30
2024-02-14T00:28:13.754Z,1.30
2024-02-14T00:30:40.863Z,1.30
2024-02-14T00:33:08.120Z,1.30
2024-02-14T00:35:35.504Z,1.30
2024-02-14T00:38:02.770Z,1.30
2024-02-14T00:40:30.090Z,1.30
2024-02-14T00:42:56.989Z,1.30
2024-02-14T00:45:24.111Z,1.30
2024-02-14T00:47:51.337Z,1.30
2024-02-14T00:50:18.558Z,1.20
2024-02-14T00:52:45.402Z,1.10
2024-02-14T00:55:13.142Z,1.20
2024-02-14T00:57:39.981Z,1.20
2024-02-14T01:00:08.925Z,1.20
2024-02-14T01:02:36.024Z,1.20
2024-02-14T01:05:03.534Z,1.10
2024-02-14T01:07:30.691Z,1.10
2024-02-14T01:09:57.645Z,1.00
2024-02-14T01:12:24.463Z,0.90
2024-02-14T01:14:51.665Z,0.80
2024-02-14T01:17:18.648Z,0.80
2024-02-14T01:19:45.725Z,0.60
2024-02-14T01:22:12.769Z,0.50
2024-02-14T01:24:40.487Z,0.40
2024-02-14T01:27:08.131Z,0.40
2024-02-14T01:29:35.424Z,0.30
2024-02-14T01:32:02.386Z,0.20
2024-02-14T01:34:32.918Z,0.10
2024-02-14T01:36:59.802Z,0.30
2024-02-14T01:39:26.841Z,0.20
2024-02-14T01:41:53.663Z,0.30
2024-02-14T01:44:22.292Z,0.10
2024-02-14T01:46:49.214Z,0.10
2024-02-14T01:49:17.862Z,0.10
2024-02-14T01:51:47.869Z,0.00
2024-02-14T01:54:15.893Z,0.00
2024-02-14T01:56:43.348Z,0.10
2024-02-14T01:59:10.848Z,0.10
2024-02-14T02:01:38.052Z,0.00
2024-02-14T02:04:05.974Z,0.10
2024-02-14T02:06:34.032Z,0.00
2024-02-14T02:09:02.060Z,0.00
2024-02-14T02:11:29.137Z,-0.10
2024-02-14T02:13:56.734Z,0.00
2024-02-14T02:16:23.863Z,-0.20
2024-02-14T02:18:51.426Z,-0.20
2024-02-14T02:21:21.144Z,-0.40
2024-02-14T02:23:48.959Z,-0.40
2024-02-14T02:26:15.996Z,-0.50
2024-02-14T02:28:44.218Z,-0.40
2024-02-14T02:31:11.687Z,-0.50
2024-02-14T02:33:38.795Z,-0.50
2024-02-14T02:36:08.045Z,-0.60
2024-02-14T02:38:35.143Z,-0.60
2024-02-14T02:41:02.511Z,-0.50
2024-02-14T02:43:30.049Z,-0.60
2024-02-14T02:45:58.435Z,-0.60
2024-02-14T02:48:25.619Z,-0.60
2024-02-14T02:50:53.300Z,-0.60
2024-02-14T02:53:21.160Z,-0.60
2024-02-14T02:55:48.128Z,-0.70
2024-02-14T02:58:16.151Z,-0.70
2024-02-14T03:00:43.265Z,-0.80
2024-02-14T03:03:10.530Z,-0.80
2024-02-14T03:05:38.996Z,-0.80
2024-02-14T03:08:06.246Z,-0.80
2024-02-14T03:10:33.712Z,-0.80
2024-02-14T03:13:00.525Z,-0.80
2024-02-14T03:15:27.501Z,-0.80
2024-02-14T03:17:54.743Z,-0.80
2024-02-14T03:20:22.126Z,-0.80
2024-02-14T03:22:49.786Z,-0.80
2024-02-14T03:25:21.424Z,-0.70
2024-02-14T03:27:52.777Z,-0.80
2024-02-14T03:30:21.366Z,-0.80
2024-02-14T03:32:48.832Z,-0.80
2024-02-14T03:35:16.132Z,-0.90
2024-02-14T03:37:45.387Z,-0.90
2024-02-14T03:40:12.976Z,-0.60
2024-02-14T03:42:43.378Z,-0.70
2024-02-14T03:45:10.945Z,-0.70
2024-02-14T03:47:41.848Z,-0.80
2024-02-14T03:50:12.331Z,-0.80
2024-02-14T03:52:39.519Z,-0.70
2024-02-14T03:55:07.518Z,-0.70
2024-02-14T03:57:36.818Z,-0.60
2024-02-14T04:00:05.208Z,-0.50
2024-02-14T04:02:33.297Z,-0.50
2024-02-14T04:05:00.855Z,-0.50
2024-02-14T04:07:27.864Z,-0.30
2024-02-14T04:09:55.071Z,-0.30
2024-02-14T04:12:26.654Z,-0.40
2024-02-14T04:14:53.730Z,-0.50
2024-02-14T04:17:20.597Z,-0.60
2024-02-14T04:19:47.458Z,-0.60
2024-02-14T04:22:14.583Z,-0.60
2024-02-14T04:24:41.441Z,-0.50
2024-02-14T04:27:08.345Z,-0.60
2024-02-14T04:29:36.468Z,-0.60
2024-02-14T04:32:04.110Z,-0.50
2024-02-14T04:34:32.294Z,-0.60
2024-02-14T04:36:59.518Z,-0.60
2024-02-14T04:39:26.408Z,-0.60
2024-02-14T04:42:01.384Z,-0.40
2024-02-14T04:44:30.778Z,-0.70
2024-02-14T04:46:59.489Z,-0.60
2024-02-14T04:49:27.130Z,-0.50
2024-02-14T04:51:54.232Z,-0.50
2024-02-14T04:54:21.164Z,-0.40
2024-02-14T04:56:52.573Z,-0.40
2024-02-14T04:59:22.713Z,-0.50
2024-02-14T05:01:49.588Z,-0.50
2024-02-14T05:04:18.000Z,-0.60
2024-02-14T05:06:45.369Z,-0.60
2024-02-14T05:09:12.595Z,-0.50
2024-02-14T05:11:39.485Z,-0.50
2024-02-14T05:14:07.258Z,-0.40
2024-02-14T05:16:34.326Z,-0.40
2024-02-14T05:19:02.680Z,-0.60
2024-02-14T05:21:29.659Z,-0.80
2024-02-14T05:23:56.801Z,-0.60
2024-02-14T05:26:23.827Z,-0.70
2024-02-14T05:28:50.715Z,-0.60
2024-02-14T05:31:17.857Z,-0.60
2024-02-14T05:33:45.322Z,-0.60
2024-02-14T05:36:12.304Z,-0.60
2024-02-14T05:38:39.271Z,-0.60
2024-02-14T05:41:09.134Z,-0.60
2024-02-14T05:43:36.264Z,-0.50
2024-02-14T05:46:03.580Z,-0.50
2024-02-14T05:48:30.676Z,-0.50
2024-02-14T05:50:57.796Z,-0.50
2024-02-14T05:53:24.733Z,-0.40
2024-02-14T05:55:51.828Z,-0.50
2024-02-14T05:58:18.791Z,-0.40
2024-02-14T06:00:46.058Z,-0.50
2024-02-14T06:03:13.032Z,-0.30
2024-02-14T06:05:40.216Z,-0.30
2024-02-14T06:08:07.438Z,-0.20
2024-02-14T06:10:35.974Z,-0.10
2024-02-14T06:13:03.094Z,-0.20
2024-02-14T06:15:30.147Z,-0.20
2024-02-14T06:17:57.370Z,-0.30
2024-02-14T06:20:27.543Z,-0.20
2024-02-14T06:23:02.027Z,-0.30
2024-02-14T06:25:32.686Z,-0.20
2024-02-14T06:27:59.756Z,-0.30
2024-02-14T06:30:28.758Z,-0.20
2024-02-14T06:33:02.862Z,-0.20
2024-02-14T06:35:31.467Z,-0.10
2024-02-14T06:38:04.086Z,-0.10
2024-02-14T06:40:32.209Z,0.00
2024-02-14T06:43:01.956Z,0.00
2024-02-14T06:45:29.449Z,0.10
2024-02-14T06:47:57.151Z,0.20
2024-02-14T06:50:26.885Z,0.20
2024-02-14T06:52:54.345Z,0.20
2024-02-14T06:55:21.668Z,0.30
2024-02-14T06:57:48.853Z,0.50
2024-02-14T07:00:16.359Z,0.60
2024-02-14T07:02:44.889Z,0.60
2024-02-14T07:05:14.496Z,0.70
2024-02-14T07:07:42.416Z,0.80
2024-02-14T07:10:10.053Z,0.90
2024-02-14T07:12:40.338Z,1.00
2024-02-14T07:15:08.951Z,1.20
2024-02-14T07:17:36.054Z,1.50
2024-02-14T07:20:03.858Z,1.70
2024-02-14T07:22:32.059Z,1.80
2024-02-14T07:24:59.369Z,2.10
2024-02-14T07:27:26.530Z,2.60
2024-02-14T07:29:53.852Z,2.90
2024-02-14T07:32:21.619Z,3.40
2024-02-14T07:34:49.197Z,4.00
2024-02-14T07:37:21.023Z,4.10
2024-02-14T07:39:49.258Z,4.50
2024-02-14T07:42:16.250Z,4.60
2024-02-14T07:44:44.366Z,4.30
2024-02-14T07:47:11.506Z,5.40
2024-02-14T07:49:38.530Z,5.80
2024-02-14T07:52:06.160Z,5.10
2024-02-14T07:54:33.253Z,5.60
2024-02-14T07:57:00.292Z,6.40
2024-02-14T07:59:29.093Z,5.80
2024-02-14T08:01:59.052Z,6.70
2024-02-14T08:04:26.379Z,8.40
2024-02-14T08:06:53.612Z,8.60
2024-02-14T08:09:20.759Z,8.60
2024-02-14T08:11:47.833Z,8.80
2024-02-14T08:14:14.763Z,8.60
2024-02-14T08:16:41.992Z,8.20
2024-02-14T08:19:09.124Z,8.70
2024-02-14T08:21:37.389Z,8.30
2024-02-14T08:24:04.710Z,8.10
2024-02-14T08:26:33.334Z,8.30
2024-02-14T08:29:00.227Z,8.90
2024-02-14T08:31:27.382Z,9.40
2024-02-14T08:33:55.745Z,8.90
2024-02-14T08:36:23.163Z,9.00
2024-02-14T08:38:50.464Z,8.60
2024-02-14T08:41:19.850Z,8.20
2024-02-14T08:43:47.932Z,9.10
2024-02-14T08:46:15.578Z,8.70
2024-02-14T08:48:48.755Z,8.80
2024-02-14T08:51:21.807Z,9.30
2024-02-14T08:53:50.236Z,8.80
2024-02-14T08:56:17.424Z,9.60
2024-02-14T08:58:45.669Z,9.80
2024-02-14T09:01:15.774Z,9.50
2024-02-14T09:03:50.875Z,8.90
2024-02-14T09:06:22.362Z,8.30
2024-02-14T09:08:52.273Z,8.10
2024-02-14T09:11:19.996Z,7.70
2024-02-14T09:13:49.324Z,7.20
2024-02-14T09:16:19.296Z,7.60
2024-02-14T09:18:49.644Z,7.60
2024-02-14T09:21:21.201Z,7.50
2024-02-14T09:23:49.244Z,7.70
2024-02-14T09:26:17.899Z,8.10
2024-02-14T09:28:45.599Z,7.90
2024-02-14T09:31:13.817Z,7.80
2024-02-14T09:33:42.153Z,7.70
2024-02-14T09:36:09.733Z,8.00
2024-02-14T09:38:37.067Z,7.70
2024-02-14T09:41:19.364Z,7.40
2024-02-14T09:43:46.986Z,7.40
2024-02-14T09:46:16.319Z,7.70
2024-02-14T09:48:46.945Z,7.60
2024-02-14T09:51:15.379Z,7.60
2024-02-14T09:53:44.635Z,7.70
2024-02-14T09:56:13.388Z,7.90
2024-02-14T09:58:42.547Z,8.00
2024-02-14T10:01:09.468Z,8.00
2024-02-14T10:03:37.494Z,7.90
2024-02-14T10:06:05.992Z,8.00
2024-02-14T10:08:34.011Z,8.10
2024-02-14T10:11:01.088Z,8.00
2024-02-14T10:13:30.142Z,8.00
2024-02-14T10:15:57.737Z,7.90
2024-02-14T10:18:25.228Z,8.20
2024-02-14T10:20:56.870Z,8.40
2024-02-14T10:23:24.097Z,8.40
2024-02-14T10:25:54.055Z,8.40
2024-02-14T10:28:29.784Z,8.50
2024-02-14T10:31:00.775Z,8.60
2024-02-14T10:33:31.823Z,8.50
2024-02-14T10:36:02.144Z,8.30
2024-02-14T10:38:36.533Z,8.20
2024-02-14T10:41:05.301Z,8.30
2024-02-14T10:43:33.425Z,8.40
2024-02-14T10:46:10.875Z,8.50
2024-02-14T10:48:40.546Z,8.40
2024-02-14T10:51:11.926Z,8.60
2024-02-14T10:53:47.025Z,8.90
2024-02-14T10:56:22.714Z,8.60
2024-02-14T10:58:50.609Z,8.70
2024-02-14T11:01:18.417Z,8.70
2024-02-14T11:03:46.276Z,8.80
2024-02-14T11:06:18.486Z,8.60
2024-02-14T11:09:18.234Z,8.70
2024-02-14T11:11:46.284Z,8.80
2024-02-14T11:14:17.493Z,8.70
2024-02-14T11:16:47.104Z,8.80
2024-02-14T11:19:15.610Z,8.90
2024-02-14T11:21:44.568Z,9.20
2024-02-14T11:24:12.723Z,9.40
2024-02-14T11:26:52.977Z,9.70
2024-02-14T11:29:25.079Z,9.50
2024-02-14T11:32:03.694Z,9.40
2024-02-14T11:34:38.057Z,9.40
2024-02-14T11:37:06.836Z,9.30
2024-02-14T11:39:36.981Z,9.40
2024-02-14T11:42:04.658Z,9.40
2024-02-14T11:44:33.959Z,9.40
2024-02-14T11:47:01.961Z,9.60
2024-02-14T11:49:29.196Z,9.80
2024-02-14T11:51:56.115Z,10.00
2024-02-14T11:54:24.239Z,10.10
2024-02-14T11:56:51.493Z,10.10
2024-02-14T11:59:21.193Z,10.20
2024-02-14T12:01:50.101Z,9.90
2024-02-14T12:04:17.765Z,9.90
2024-02-14T12:06:45.594Z,9.90
2024-02-14T12:09:14.210Z,9.90
2024-02-14T12:11:47.628Z,10.00
2024-02-14T12:14:15.549Z,10.20
2024-02-14T12:16:45.482Z,10.30
2024-02-14T12:19:19.636Z,10.30
2024-02-14T12:21:46.756Z,10.10
2024-02-14T12:24:16.071Z,10.00
2024-02-14T12:26:44.006Z,10.20
2024-02-14T12:29:15.242Z,10.20
2024-02-14T12:31:44.836Z,10.10
2024-02-14T12:34:13.898Z,10.00
2024-02-14T12:36:41.605Z,10.20
2024-02-14T12:39:14.369Z,10.30
2024-02-14T12:41:42.148Z,10.20
2024-02-14T12:44:09.395Z,10.30
2024-02-14T12:46:40.078Z,10.40
2024-02-14T12:49:07.814Z,10.50
2024-02-14T12:51:37.345Z,10.40
2024-02-14T12:54:05.304Z,10.60
2024-02-14T12:56:33.490Z,10.90
2024-02-14T12:59:01.358Z,11.10
2024-02-14T13:01:28.600Z,11.00
2024-02-14T13:03:55.796Z,11.00
2024-02-14T13:06:23.933Z,11.00
2024-02-14T13:08:50.936Z,11.00
2024-02-14T13:11:20.351Z,10.80
2024-02-14T13:13:47.746Z,10.70
2024-02-14T13:16:14.938Z,10.70
2024-02-14T13:18:42.684Z,10.80
2024-02-14T13:21:09.941Z,10.90
2024-02-14T13:23:37.147Z,10.80
2024-02-14T13:26:05.107Z,10.80
2024-02-14T13:28:33.531Z,10.60
2024-02-14T13:31:00.807Z,10.60
2024-02-14T13:33:28.381Z,10.90
2024-02-14T13:35:55.915Z,10.70
2024-02-14T13:38:23.055Z,10.70
2024-02-14T13:40:50.341Z,10.70
2024-02-14T13:43:19.029Z,10.60
2024-02-14T13:45:47.906Z,10.40
2024-02-14T13:48:15.079Z,10.30
2024-02-14T13:50:43.845Z,10.50
2024-02-14T13:53:11.380Z,10.40
2024-02-14T13:55:39.130Z,10.30
2024-02-14T13:58:06.136Z,10.40
2024-02-14T14:00:35.014Z,10.30
2024-02-14T14:03:02.219Z,10.30
2024-02-14T14:05:29.424Z,10.20
2024-02-14T14:07:59.590Z,10.40
2024-02-14T14:10:29.640Z,10.10
2024-02-14T14:12:57.932Z,10.10
2024-02-14T14:15:25.327Z,10.00
2024-02-14T14:17:53.926Z,10.00
2024-02-14T14:20:22.560Z,10.10
2024-02-14T14:22:49.935Z,10.10
2024-02-14T14:25:17.187Z,10.30
2024-02-14T14:27:44.841Z,10.00
2024-02-14T14:30:13.250Z,10.00
2024-02-14T14:32:44.190Z,9.90
2024-02-14T14:35:14.982Z,9.90
2024-02-14T14:37:45.206Z,9.90
2024-02-14T14:40:12.387Z,9.90
2024-02-14T14:42:39.840Z,9.90
2024-02-14T14:45:07.442Z,9.90
2024-02-14T14:47:35.250Z,9.80
2024-02-14T14:50:03.285Z,9.80
2024-02-14T14:52:30.373Z,9.90
2024-02-14T14:54:58.273Z,9.90
2024-02-14T14:57:27.207Z,9.80
2024-02-14T14:59:58.527Z,10.00
2024-02-14T15:02:25.444Z,9.90
2024-02-14T15:04:52.633Z,9.80
2024-02-14T15:07:21.484Z,9.80
2024-02-14T15:09:48.821Z,9.90
2024-02-14T15:12:19.834Z,9.90
2024-02-14T15:14:47.069Z,9.90
2024-02-14T15:17:15.736Z,9.90
2024-02-14T15:19:42.637Z,9.90
2024-02-14T15:22:10.058Z,9.90
2024-02-14T15:24:39.366Z,9.90
2024-02-14T15:27:07.371Z,9.90
2024-02-14T15:29:53.453Z,9.90
2024-02-14T15:32:39.486Z,9.90
2024-02-14T15:35:07.736Z,9.90
2024-02-14T15:37:36.429Z,9.80
2024-02-14T15:40:04.020Z,9.80
2024-02-14T15:42:31.230Z,9.70
2024-02-14T15:44:58.783Z,9.70
2024-02-14T15:47:26.234Z,9.60
2024-02-14T15:49:54.259Z,9.60
2024-02-14T15:52:21.749Z,9.50
2024-02-14T15:54:49.108Z,9.50
2024-02-14T15:57:16.162Z,9.40
2024-02-14T15:59:43.458Z,9.40
2024-02-14T16:02:11.358Z,9.40
2024-02-14T16:04:38.759Z,9.40
2024-02-14T16:07:06.011Z,9.40
2024-02-14T16:09:32.933Z,9.30
2024-02-14T16:11:59.955Z,9.20
2024-02-14T16:14:30.674Z,9.30
2024-02-14T16:16:58.295Z,9.50
2024-02-14T16:19:25.354Z,9.30
2024-02-14T16:22:02.322Z,9.20
2024-02-14T16:24:39.352Z,9.10
2024-02-14T16:27:07.255Z,9.10
2024-02-14T16:29:34.492Z,9.10
2024-02-14T16:32:01.401Z,9.10
2024-02-14T16:34:30.104Z,9.00
2024-02-14T16:36:58.322Z,9.00
2024-02-14T16:39:35.541Z,8.90
2024-02-14T16:42:09.790Z,8.90
2024-02-14T16:44:38.616Z,8.80
2024-02-14T16:47:06.351Z,8.90
2024-02-14T16:49:38.827Z,8.90
2024-02-14T16:52:07.387Z,8.80
2024-02-14T16:54:35.204Z,8.80
2024-02-14T16:57:15.867Z,8.80
2024-02-14T16:59:47.286Z,8.80
2024-02-14T17:02:15.273Z,8.80
2024-02-14T17:04:43.238Z,8.80
2024-02-14T17:07:12.761Z,8.80
2024-02-14T17:09:40.622Z,8.70
2024-02-14T17:12:10.031Z,8.70
2024-02-14T17:14:41.541Z,8.60
2024-02-14T17:17:11.697Z,8.60
2024-02-14T17:19:38.994Z,8.60
2024-02-14T17:22:17.760Z,8.60
2024-02-14T17:24:56.780Z,8.80
2024-02-14T17:27:24.347Z,8.60
2024-02-14T17:29:51.387Z,8.50
2024-02-14T17:32:28.360Z,8.50
2024-02-14T17:35:03.249Z,8.40
2024-02-14T17:37:30.383Z,8.40
2024-02-14T17:39:57.507Z,8.40
2024-02-14T17:42:24.593Z,8.30
2024-02-14T17:44:51.629Z,8.30
2024-02-14T17:47:19.536Z,8.30
2024-02-14T17:49:48.206Z,8.30
2024-02-14T17:52:21.891Z,8.20
2024-02-14T17:54:49.021Z,8.20
2024-02-14T17:57:17.578Z,8.20
2024-02-14T17:59:46.032Z,8.20
2024-02-14T18:02:13.080Z,8.10
2024-02-14T18:04:40.161Z,8.20
2024-02-14T18:07:07.352Z,8.20
2024-02-14T18:09:34.683Z,8.10
2024-02-14T18:12:01.679Z,8.10
2024-02-14T18:14:29.614Z,8.10
2024-02-14T18:16:56.826Z,8.10
2024-02-14T18:19:24.584Z,8.10
2024-02-14T18:21:51.680Z,8.10
2024-02-14T18:24:19.326Z,8.00
2024-02-14T18:26:46.294Z,8.00
2024-02-14T18:29:13.971Z,8.00
2024-02-14T18:31:42.327Z,7.90
2024-02-14T18:34:09.428Z,7.90
2024-02-14T18:36:36.707Z,8.00
2024-02-14T18:39:03.934Z,8.00
2024-02-14T18:41:31.777Z,7.90
2024-02-14T18:44:04.493Z,8.00
2024-02-14T18:46:31.847Z,7.90
2024-02-14T18:48:59.166Z,7.80
2024-02-14T18:51:26.429Z,7.80
2024-02-14T18:53:53.329Z,7.70
2024-02-14T18:56:27.023Z,7.70
2024-02-14T18:58:54.129Z,7.70
2024-02-14T19:01:26.702Z,7.70
2024-02-14T19:03:57.721Z,7.80
2024-02-14T19:06:25.114Z,7.70
2024-02-14T19:08:52.919Z,7.80
2024-02-14T19:11:22.582Z,8.00
2024-02-14T19:13:51.432Z,7.80
2024-02-14T19:16:27.586Z,8.00
2024-02-14T19:18:56.443Z,7.80
2024-02-14T19:21:24.052Z,7.80
2024-02-14T19:23:51.212Z,7.80
2024-02-14T19:26:20.437Z,7.80
2024-02-14T19:28:48.631Z,7.80
2024-02-14T19:31:16.148Z,7.80
2024-02-14T19:33:44.418Z,7.80
2024-02-14T19:36:11.458Z,8.00
2024-02-14T19:38:38.709Z,7.80
2024-02-14T19:41:06.008Z,7.80
2024-02-14T19:43:39.207Z,8.00
2024-02-14T19:46:07.511Z,8.10
2024-02-14T19:48:36.512Z,7.90
2024-02-14T19:51:04.994Z,8.00
2024-02-14T19:53:32.867Z,7.90
2024-02-14T19:56:00.605Z,7.90
2024-02-14T19:58:27.695Z,8.00
2024-02-14T20:00:54.897Z,8.00
2024-02-14T20:03:22.500Z,8.00
2024-02-14T20:05:50.223Z,8.00
2024-02-14T20:08:19.002Z,8.00
2024-02-14T20:10:46.752Z,8.00
2024-02-14T20:13:14.697Z,8.10
2024-02-14T20:15:41.801Z,8.00
2024-02-14T20:18:10.536Z,8.00
2024-02-14T20:20:38.886Z,7.90
2024-02-14T20:23:06.044Z,7.90
2024-02-14T20:25:33.001Z,7.90
2024-02-14T20:27:59.981Z,7.90
2024-02-14T20:30:30.221Z,7.90
2024-02-14T20:32:58.668Z,7.90
2024-02-14T20:35:25.815Z,7.90
2024-02-14T20:37:56.339Z,8.10
2024-02-14T20:40:24.359Z,7.90
2024-02-14T20:42:51.490Z,7.90
2024-02-14T20:45:19.577Z,7.90
2024-02-14T20:47:49.102Z,7.90
2024-02-14T20:50:16.152Z,7.90
2024-02-14T20:52:43.666Z,7.90
2024-02-14T20:55:10.506Z,7.90
2024-02-14T20:57:37.876Z,7.90
2024-02-14T21:00:06.179Z,7.90
2024-02-14T21:02:34.539Z,7.90
2024-02-14T21:05:02.991Z,7.90
2024-02-14T21:07:30.226Z,7.90
2024-02-14T21:09:57.558Z,7.90
2024-02-14T21:12:24.465Z,7.90
2024-02-14T21:14:52.778Z,7.90
2024-02-14T21:17:19.736Z,7.80
2024-02-14T21:19:49.253Z,7.80
2024-02-14T21:22:17.593Z,7.80
2024-02-14T21:24:44.466Z,7.70
2024-02-14T21:27:11.725Z,7.70
2024-02-14T21:29:39.022Z,7.70
2024-02-14T21:32:15.846Z,7.80
2024-02-14T21:34:42.966Z,7.80
2024-02-14T21:37:09.823Z,7.90
2024-02-14T21:39:37.162Z,7.90
2024-02-14T21:42:04.253Z,8.00
2024-02-14T21:44:32.405Z,7.90
2024-02-14T21:46:59.992Z,8.00
2024-02-14T21:49:27.438Z,7.90
2024-02-14T21:51:54.526Z,7.90
2024-02-14T21:54:21.425Z,8.00
2024-02-14T21:56:48.341Z,8.00
2024-02-14T21:59:15.276Z,8.00
2024-02-14T22:01:45.363Z,8.00
2024-02-14T22:04:14.015Z,8.10
2024-02-14T22:06:41.172Z,8.10
2024-02-14T22:09:09.231Z,8.10
2024-02-14T22:11:39.071Z,8.10
2024-02-14T22:14:05.958Z,8.20
2024-02-14T22:16:33.243Z,8.10
2024-02-14T22:19:01.596Z,8.10
2024-02-14T22:21:29.155Z,8.20
2024-02-14T22:23:56.528Z,8.20
2024-02-14T22:26:23.664Z,8.20
2024-02-14T22:28:53.360Z,8.20
2024-02-14T22:31:20.243Z,8.20
2024-02-14T22:33:47.551Z,8.20
2024-02-14T22:36:14.661Z,8.20
2024-02-14T22:38:41.920Z,8.10
2024-02-14T22:41:09.042Z,8.30
2024-02-14T22:43:36.374Z,8.30
2024-02-14T22:46:03.516Z,8.30
2024-02-14T22:48:31.421Z,8.20
2024-02-14T22:50:59.185Z,8.40
2024-02-14T22:53:34.055Z,8.30
2024-02-14T22:56:01.781Z,8.30
2024-02-14T22:58:29.024Z,8.40
2024-02-14T23:00:56.216Z,8.20
2024-02-14T23:03:25.876Z,8.20
2024-02-14T23:05:56.604Z,8.20
2024-02-14T23:08:24.289Z,8.20
2024-02-14T23:10:51.369Z,8.20
2024-02-14T23:13:19.536Z,8.20
2024-02-14T23:15:48.158Z,8.20
2024-02-14T23:18:15.475Z,8.20
2024-02-14T23:20:44.009Z,8.10
2024-02-14T23:23:11.010Z,8.10
2024-02-14T23:25:38.662Z,8.10
2024-02-14T23:28:06.296Z,8.10
2024-02-14T23:30:36.135Z,8.10
2024-02-14T23:33:03.740Z,8.10
2024-02-14T23:35:30.772Z,8.10
2024-02-14T23:37:57.953Z,8.10
2024-02-14T23:40:24.817Z,8.10
2024-02-14T23:42:52.367Z,8.20
